EZY9T EINN-EINN

Flight info

Callsign EZY9T
Flight time N/A
Altitude 2500
Route SHA DCT DERAG
Aircraft A319/M-SDE3FGHIRWY/LB1

Departure

Time 2026-04-30 18:16
Airport Shannon Airport (EINN)

Arrival

Time N/A
Airport Shannon Airport (EINN)
Time Latitude Longitude Altitude Speed Heading
2026-04-30 17:57 52.69357 -8.91883 23 ft 0 kts 225°
2026-04-30 18:10 52.69358 -8.91881 -5 ft 1 kts 225°
2026-04-30 18:11 52.69403 -8.91783 23 ft 3 kts 266°
2026-04-30 18:11 52.69400 -8.91758 23 ft 0 kts 320°
2026-04-30 18:13 52.69407 -8.91767 23 ft 4 kts 320°
2026-04-30 18:13 52.69479 -8.92096 23 ft 15 kts 285°
2026-04-30 18:14 52.69624 -8.92482 23 ft 19 kts 315°
2026-04-30 18:15 52.69890 -8.92916 30 ft 7 kts 315°
2026-04-30 18:15 52.69991 -8.92935 37 ft 0 kts 53°
2026-04-30 18:16 52.70137 -8.92623 33 ft 79 kts 52°
2026-04-30 18:16 52.71293 -8.90187 1029 ft 154 kts 54°
2026-04-30 18:17 52.71990 -8.88736 1774 ft 173 kts 58°
2026-04-30 18:17 52.72857 -8.86992 1994 ft 223 kts 55°
2026-04-30 18:17 52.75823 -8.84236 1989 ft 270 kts
2026-04-30 18:18 52.77665 -8.84882 1988 ft 274 kts 334°
2026-04-30 18:18 52.79053 -8.86816 1982 ft 252 kts 302°
2026-04-30 18:18 52.79611 -8.89433 1981 ft 238 kts 268°
2026-04-30 18:18 52.79322 -8.92066 1984 ft 232 kts 245°
2026-04-30 18:19 52.78761 -8.94553 1980 ft 231 kts 243°
2026-04-30 18:19 52.78048 -8.96910 1981 ft 229 kts 235°
2026-04-30 18:19 52.77270 -8.99194 1980 ft 228 kts 235°
2026-04-30 18:19 52.76461 -9.01447 1980 ft 228 kts 234°
2026-04-30 18:20 52.75647 -9.03689 1982 ft 227 kts 233°
2026-04-30 18:20 52.74848 -9.05906 1981 ft 229 kts 234°
2026-04-30 18:20 52.74024 -9.08151 1988 ft 228 kts 234°
2026-04-30 18:20 52.73194 -9.10372 2001 ft 227 kts 234°
2026-04-30 18:21 52.72345 -9.12607 2003 ft 231 kts 233°
2026-04-30 18:21 52.71499 -9.14838 2000 ft 228 kts 234°
2026-04-30 18:21 52.70651 -9.17070 2008 ft 230 kts 233°
2026-04-30 18:21 52.69804 -9.19310 2000 ft 230 kts 234°
2026-04-30 18:22 52.68946 -9.21552 1994 ft 232 kts 233°
2026-04-30 18:22 52.67249 -9.26020 1997 ft 230 kts 234°
2026-04-30 18:22 52.66287 -9.28095 1996 ft 225 kts 217°
2026-04-30 18:23 52.64951 -9.29284 1985 ft 216 kts 191°
2026-04-30 18:23 52.63489 -9.29364 1988 ft 204 kts 165°
2026-04-30 18:23 52.62250 -9.28493 1982 ft 186 kts 143°
2026-04-30 18:23 52.61390 -9.27014 1992 ft 175 kts 123°
2026-04-30 18:24 52.60749 -9.23261 2004 ft 170 kts 101°
2026-04-30 18:24 52.60557 -9.21348 1989 ft 170 kts 101°
2026-04-30 18:24 52.60363 -9.19429 2000 ft 170 kts 102°
2026-04-30 18:25 52.60173 -9.17512 1999 ft 170 kts 100°
2026-04-30 18:25 52.60439 -9.13800 1993 ft 158 kts 74°
2026-04-30 18:25 52.60968 -9.12210 2000 ft 160 kts 61°
2026-04-30 18:26 52.62288 -9.09255 2011 ft 159 kts 58°
2026-04-30 18:26 52.62733 -9.08302 1999 ft 158 kts 57°
2026-04-30 18:26 52.63585 -9.06498 1912 ft 139 kts 58°
2026-04-30 18:27 52.64523 -9.04512 1669 ft 127 kts 60°
2026-04-30 18:27 52.65063 -9.03367 1499 ft 126 kts 59°
2026-04-30 18:28 52.66135 -9.01098 1165 ft 124 kts 58°
2026-04-30 18:28 52.66665 -8.99973 982 ft 124 kts 57°
2026-04-30 18:28 52.67679 -8.97826 645 ft 113 kts 55°
2026-04-30 18:29 52.68159 -8.96810 477 ft 112 kts 54°
2026-04-30 18:29 52.69635 -8.93733 364 ft 133 kts 57°
2026-04-30 18:30 52.70740 -8.91098 1818 ft 155 kts 63°
2026-04-30 18:30 52.72106 -8.87729 3175 ft 199 kts 61°
2026-04-30 18:31 52.72992 -8.85788 3889 ft 228 kts 41°
2026-04-30 18:31 52.76228 -8.83406 5532 ft 275 kts 22°